createdAt,value
2023-04-01T00:01:24.341Z,99167.03
2023-04-01T00:03:51.265Z,99164.44
2023-04-01T00:06:18.985Z,99168.81
2023-04-01T00:08:45.777Z,99161.84
2023-04-01T00:11:12.835Z,99161.72
2023-04-01T00:13:39.422Z,99166.09
2023-04-01T00:16:13.867Z,99166.09
2023-04-01T00:18:48.184Z,99172.13
2023-04-01T00:21:14.728Z,99175.78
2023-04-01T00:23:41.177Z,99178.41
2023-04-01T00:26:07.671Z,99179.34
2023-04-01T00:28:35.286Z,99184.56
2023-04-01T00:31:08.707Z,99177.66
2023-04-01T00:33:36.597Z,99183.69
2023-04-01T00:36:11.402Z,99184.78
2023-04-01T00:38:38.745Z,99187.38
2023-04-01T00:41:06.657Z,99182.28
2023-04-01T00:43:33.562Z,99171.06
2023-04-01T00:46:00.428Z,99181.47
2023-04-01T00:48:33.891Z,99177.22
2023-04-01T00:51:03.307Z,99179.81
2023-04-01T00:53:31.437Z,99181.59
2023-04-01T00:56:08.185Z,99183.47
2023-04-01T00:58:40.767Z,99184.44
2023-04-01T01:01:09.420Z,99193.88
2023-04-01T01:03:36.145Z,99184.44
2023-04-01T01:06:27.476Z,99199.06
2023-04-01T01:09:31.651Z,99198.34
2023-04-01T01:12:10.313Z,99197.53
2023-04-01T01:14:51.849Z,99196.84
2023-04-01T01:17:28.149Z,99197.75
2023-04-01T01:20:26.030Z,99202.03
2023-04-01T01:23:12.236Z,99202.97
2023-04-01T01:26:08.287Z,99198.00
2023-04-01T01:29:01.255Z,99188.69
2023-04-01T01:31:38.989Z,99201.78
2023-04-01T01:34:31.068Z,99210.41
2023-04-01T01:37:06.778Z,99201.19
2023-04-01T01:39:36.293Z,99203.09
2023-04-01T01:42:07.246Z,99209.22
2023-04-01T01:44:36.562Z,99203.34
2023-04-01T01:47:03.400Z,99211.94
2023-04-01T01:49:32.811Z,99210.31
2023-04-01T01:51:59.271Z,99213.81
2023-04-01T01:54:25.734Z,99211.47
2023-04-01T01:57:06.238Z,99222.09
2023-04-01T01:59:36.254Z,99221.38
2023-04-01T02:02:08.761Z,99212.88
2023-04-01T02:04:45.394Z,99219.84
2023-04-01T02:07:19.432Z,99213.94
2023-04-01T02:09:46.054Z,99225.41
2023-04-01T02:12:16.252Z,99221.03
2023-04-01T02:14:48.821Z,99233.28
2023-04-01T02:17:27.454Z,99221.25
2023-04-01T02:20:01.793Z,99219.47
2023-04-01T02:22:36.139Z,99225.72
2023-04-01T02:25:07.452Z,99229.28
2023-04-01T02:27:34.078Z,99225.84
2023-04-01T02:30:00.605Z,99231.16
2023-04-01T02:32:29.629Z,99226.81
2023-04-01T02:34:57.284Z,99230.31
2023-04-01T02:37:24.453Z,99229.50
2023-04-01T02:39:51.096Z,99233.06
2023-04-01T02:42:17.568Z,99235.66
2023-04-01T02:44:44.021Z,99228.78
2023-04-01T02:47:10.489Z,99229.63
2023-04-01T02:49:37.014Z,99240.13
2023-04-01T02:52:03.506Z,99234.22
2023-04-01T02:54:29.909Z,99242.72
2023-04-01T02:56:58.748Z,99239.16
2023-04-01T02:59:25.254Z,99246.25
2023-04-01T03:01:51.689Z,99242.13
2023-04-01T03:04:18.149Z,99240.25
2023-04-01T03:06:44.601Z,99248.97
2023-04-01T03:09:13.942Z,99249.09
2023-04-01T03:11:41.757Z,99250.72
2023-04-01T03:14:08.222Z,99255.25
2023-04-01T03:16:34.657Z,99260.44
2023-04-01T03:19:02.958Z,99261.13
2023-04-01T03:21:29.417Z,99266.22
2023-04-01T03:23:56.002Z,99264.69
2023-04-01T03:26:22.502Z,99264.69
2023-04-01T03:28:49.003Z,99269.97
2023-04-01T03:31:17.078Z,99273.28
2023-04-01T03:33:43.895Z,99279.44
2023-04-01T03:36:12.512Z,99276.84
2023-04-01T03:38:41.423Z,99281.81
2023-04-01T03:41:08.266Z,99283.47
2023-04-01T03:43:34.712Z,99289.38
2023-04-01T03:46:01.292Z,99284.28
2023-04-01T03:48:27.869Z,99285.94
2023-04-01T03:50:54.376Z,99291.13
2023-04-01T03:53:20.825Z,99297.19
2023-04-01T03:55:47.809Z,99291.97
2023-04-01T03:58:14.359Z,99296.22
2023-04-01T04:00:40.796Z,99304.97
2023-04-01T04:03:08.163Z,99305.66
2023-04-01T04:05:34.855Z,99309.09
2023-04-01T04:08:01.967Z,99308.41
2023-04-01T04:10:30.147Z,99311.69
2023-04-01T04:12:56.634Z,99315.13
2023-04-01T04:15:23.461Z,99314.28
2023-04-01T04:17:49.941Z,99318.56
2023-04-01T04:20:16.811Z,99326.22
2023-04-01T04:22:43.218Z,99326.34
2023-04-01T04:25:09.781Z,99328.13
2023-04-01T04:27:36.328Z,99327.19
2023-04-01T04:30:03.177Z,99334.03
2023-04-01T04:32:31.279Z,99340.03
2023-04-01T04:34:57.783Z,99346.06
2023-04-01T04:37:24.346Z,99344.31
2023-04-01T04:39:50.874Z,99346.06
2023-04-01T04:42:17.464Z,99349.41
2023-04-01T04:44:43.937Z,99354.59
2023-04-01T04:47:10.649Z,99361.56
2023-04-01T04:49:37.217Z,99359.66
2023-04-01T04:52:03.694Z,99366.53
2023-04-01T04:54:30.525Z,99375.97
2023-04-01T04:56:57.069Z,99381.09
2023-04-01T04:59:23.580Z,99380.00
2023-04-01T05:01:50.113Z,99380.97
2023-04-01T05:04:16.577Z,99384.28
2023-04-01T05:06:45.734Z,99396.31
2023-04-01T05:09:12.456Z,99394.56
2023-04-01T05:11:38.902Z,99398.81
2023-04-01T05:14:05.398Z,99407.47
2023-04-01T05:16:32.522Z,99409.94
2023-04-01T05:18:59.084Z,99413.47
2023-04-01T05:21:25.603Z,99414.31
2023-04-01T05:23:52.040Z,99425.53
2023-04-01T05:26:18.460Z,99426.34
2023-04-01T05:28:44.881Z,99427.16
2023-04-01T05:31:11.522Z,99428.84
2023-04-01T05:33:38.113Z,99437.56
2023-04-01T05:36:15.484Z,99437.47
2023-04-01T05:38:43.426Z,99438.38
2023-04-01T05:41:10.053Z,99445.28
2023-04-01T05:43:37.438Z,99455.66
2023-04-01T05:46:04.047Z,99445.38
2023-04-01T05:48:30.482Z,99453.88
2023-04-01T05:50:57.055Z,99465.13
2023-04-01T05:53:23.573Z,99470.22
2023-04-01T05:55:50.059Z,99467.63
2023-04-01T05:58:16.506Z,99472.81
2023-04-01T06:00:43.041Z,99472.81
2023-04-01T06:03:09.587Z,99476.25
2023-04-01T06:05:51.595Z,99480.50
2023-04-01T06:08:20.328Z,99485.69
2023-04-01T06:11:14.768Z,99489.03
2023-04-01T06:14:08.279Z,99492.53
2023-04-01T06:17:14.409Z,99490.75
2023-04-01T06:20:06.339Z,99504.72
2023-04-01T06:23:02.375Z,99511.56
2023-04-01T06:25:38.414Z,99505.66
2023-04-01T06:29:01.619Z,99514.28
2023-04-01T06:31:56.341Z,99515.00
2023-04-01T06:34:53.891Z,99527.75
2023-04-01T06:37:54.326Z,99529.66
2023-04-01T06:40:39.275Z,99534.66
2023-04-01T06:43:17.928Z,99535.56
2023-04-01T06:45:51.993Z,99538.91
2023-04-01T06:48:46.064Z,99548.34
2023-04-01T06:51:46.463Z,99559.59
2023-04-01T06:54:25.285Z,99557.00
2023-04-01T06:56:58.420Z,99560.44
2023-04-01T06:59:31.982Z,99561.97
2023-04-01T07:02:06.124Z,99567.06
2023-04-01T07:04:41.943Z,99570.41
2023-04-01T07:07:17.704Z,99575.34
2023-04-01T07:09:51.761Z,99583.28
2023-04-01T07:12:37.005Z,99584.94
2023-04-01T07:15:16.215Z,99590.88
2023-04-01T07:17:45.802Z,99597.72
2023-04-01T07:20:18.812Z,99605.22
2023-04-01T07:22:55.343Z,99599.88
2023-04-01T07:25:26.310Z,99613.72
2023-04-01T07:28:06.318Z,99617.75
2023-04-01T07:31:04.946Z,99620.03
2023-04-01T07:33:44.618Z,99628.56
2023-04-01T07:36:26.681Z,99634.69
2023-04-01T07:38:56.621Z,99644.28
2023-04-01T07:41:44.134Z,99636.47
2023-04-01T07:44:53.153Z,99642.50
2023-04-01T07:47:31.233Z,99658.84
2023-04-01T07:50:00.370Z,99646.88
2023-04-01T07:52:36.045Z,99651.97
2023-04-01T07:55:23.425Z,99657.16
2023-04-01T07:58:24.432Z,99656.25
2023-04-01T08:01:14.313Z,99669.97
2023-04-01T08:03:46.840Z,99670.06
2023-04-01T08:06:25.866Z,99677.16
2023-04-01T08:09:17.005Z,99686.63
2023-04-01T08:12:28.388Z,99685.56
2023-04-01T08:15:09.852Z,99689.84
2023-04-01T08:17:42.031Z,99693.28
2023-04-01T08:20:19.050Z,99696.59
2023-04-01T08:22:53.527Z,99702.53
2023-04-01T08:25:29.573Z,99712.09
2023-04-01T08:28:11.520Z,99709.59
2023-04-01T08:30:46.987Z,99715.66
2023-04-01T08:33:33.418Z,99722.38
2023-04-01T08:36:15.073Z,99726.88
2023-04-01T08:38:47.643Z,99728.53
2023-04-01T08:41:38.734Z,99735.38
2023-04-01T08:44:05.264Z,99733.53
2023-04-01T08:46:50.607Z,99743.81
2023-04-01T08:49:19.784Z,99744.44
2023-04-01T08:51:58.420Z,99742.44
2023-04-01T08:54:46.161Z,99747.44
2023-04-01T08:57:38.745Z,99761.78
2023-04-01T09:00:05.954Z,99764.91
2023-04-01T09:02:47.736Z,99761.47
2023-04-01T09:05:20.271Z,99763.16
2023-04-01T09:08:04.110Z,99764.78
2023-04-01T09:10:49.168Z,99772.28
2023-04-01T09:13:31.323Z,99779.88
2023-04-01T09:16:13.131Z,99774.56
2023-04-01T09:18:57.349Z,99784.84
2023-04-01T09:21:42.562Z,99778.66
2023-04-01T09:24:27.896Z,99780.22
2023-04-01T09:26:54.616Z,99789.78
2023-04-01T09:29:46.801Z,99800.09
2023-04-01T09:32:24.199Z,99799.34
2023-04-01T09:35:03.301Z,99808.00
2023-04-01T09:37:37.574Z,99804.97
2023-04-01T09:40:13.757Z,99803.41
2023-04-01T09:42:48.225Z,99809.09
2023-04-01T09:45:36.299Z,99811.66
2023-04-01T09:48:21.279Z,99812.75
2023-04-01T09:51:15.413Z,99823.69
2023-04-01T09:54:01.808Z,99815.03
2023-04-01T09:56:40.540Z,99814.91
2023-04-01T09:59:37.211Z,99825.19
2023-04-01T10:02:28.169Z,99829.28
2023-04-01T10:05:06.640Z,99829.81
2023-04-01T10:07:53.719Z,99823.84
2023-04-01T10:10:56.408Z,99824.72
2023-04-01T10:13:30.257Z,99818.69
2023-04-01T10:16:08.873Z,99836.41
2023-04-01T10:18:52.180Z,99832.25
2023-04-01T10:21:43.464Z,99835.19
2023-04-01T10:24:34.327Z,99839.56
2023-04-01T10:27:22.117Z,99838.63
2023-04-01T10:29:48.571Z,99844.78
2023-04-01T10:32:33.568Z,99842.28
2023-04-01T10:35:31.781Z,99848.09
2023-04-01T10:38:04.622Z,99854.38
2023-04-01T10:40:42.270Z,99858.97
2023-04-01T10:43:30.036Z,99859.22
2023-04-01T10:46:27.617Z,99865.03
2023-04-01T10:49:31.352Z,99870.25
2023-04-01T10:52:24.651Z,99865.16
2023-04-01T10:55:19.990Z,99865.56
2023-04-01T10:58:06.231Z,99870.81
2023-04-01T11:00:51.525Z,99867.75
2023-04-01T11:03:46.082Z,99875.09
2023-04-01T11:06:51.227Z,99869.41
2023-04-01T11:09:21.234Z,99874.94
2023-04-01T11:12:04.516Z,99879.41
2023-04-01T11:15:08.582Z,99888.72
2023-04-01T11:17:34.997Z,99892.16
2023-04-01T11:20:20.391Z,99900.72
2023-04-01T11:23:19.891Z,99902.72
2023-04-01T11:26:11.726Z,99904.75
2023-04-01T11:28:44.285Z,99908.03
2023-04-01T11:31:39.638Z,99922.03
2023-04-01T11:34:40.996Z,99921.59
2023-04-01T11:37:13.370Z,99922.56
2023-04-01T11:39:50.865Z,99925.53
2023-04-01T11:42:39.616Z,99929.19
2023-04-01T11:45:24.923Z,99933.91
2023-04-01T11:48:22.096Z,99943.97
2023-04-01T11:50:54.670Z,99936.13
2023-04-01T11:53:30.790Z,99948.78
2023-04-01T11:56:24.852Z,99951.41
2023-04-01T11:59:29.948Z,99949.75
2023-04-01T12:02:19.286Z,99960.09
2023-04-01T12:04:59.275Z,99961.63
2023-04-01T12:08:14.040Z,99966.50
2023-04-01T12:10:55.430Z,99975.44
2023-04-01T12:13:49.665Z,99974.28
2023-04-01T12:16:30.662Z,99976.03
2023-04-01T12:19:03.529Z,99983.88
2023-04-01T12:21:36.202Z,99980.44
2023-04-01T12:24:28.772Z,99987.44
2023-04-01T12:27:24.041Z,99991.81
2023-04-01T12:29:53.230Z,99988.59
2023-04-01T12:32:26.655Z,99996.44
2023-04-01T12:34:54.110Z,99999.75
2023-04-01T12:37:36.044Z,99995.69
2023-04-01T12:40:40.384Z,100010.91
2023-04-01T12:43:33.290Z,100019.56
2023-04-01T12:46:33.327Z,100016.72
2023-04-01T12:49:03.002Z,100017.13
2023-04-01T12:51:50.854Z,100012.22
2023-04-01T12:54:54.666Z,100017.31
2023-04-01T12:57:33.930Z,100026.47
2023-04-01T13:00:33.567Z,100024.34
2023-04-01T13:03:30.827Z,100027.91
2023-04-01T13:06:17.231Z,100028.41
2023-04-01T13:08:56.540Z,100025.19
2023-04-01T13:11:34.891Z,100037.03
2023-04-01T13:14:18.501Z,100041.53
2023-04-01T13:17:29.595Z,100040.81
2023-04-01T13:20:11.457Z,100045.81
2023-04-01T13:23:07.618Z,100052.81
2023-04-01T13:26:06.784Z,100062.53
2023-04-01T13:28:48.631Z,100063.59
2023-04-01T13:31:57.296Z,100065.59
2023-04-01T13:35:02.215Z,100066.13
2023-04-01T13:37:44.051Z,100064.81
2023-04-01T13:40:36.418Z,100070.78
2023-04-01T13:43:11.246Z,100073.94
2023-04-01T13:45:43.823Z,100074.47
2023-04-01T13:48:52.244Z,100074.88
2023-04-01T13:51:44.573Z,100085.31
2023-04-01T13:54:13.921Z,100087.19
2023-04-01T13:56:44.503Z,100082.81
2023-04-01T13:59:57.322Z,100095.97
2023-04-01T14:02:42.219Z,100091.44
2023-04-01T14:05:43.981Z,100101.88
2023-04-01T14:08:29.304Z,100108.16
2023-04-01T14:11:21.190Z,100119.97
2023-04-01T14:14:25.429Z,100128.41
2023-04-01T14:17:13.181Z,100135.28
2023-04-01T14:19:51.734Z,100133.75
2023-04-01T14:22:43.953Z,100142.59
2023-04-01T14:25:28.707Z,100135.19
2023-04-01T14:28:17.668Z,100156.38
2023-04-01T14:30:56.432Z,100158.13
2023-04-01T14:33:51.874Z,100162.81
2023-04-01T14:36:49.850Z,100165.63
2023-04-01T14:39:34.968Z,100172.59
2023-04-01T14:42:22.412Z,100173.56
2023-04-01T14:45:18.944Z,100185.00
2023-04-01T14:47:56.216Z,100189.19
2023-04-01T14:50:25.510Z,100190.22
2023-04-01T14:53:10.607Z,100189.47
2023-04-01T14:55:40.047Z,100199.88
2023-04-01T14:58:13.490Z,100208.44
2023-04-01T15:01:01.645Z,100216.06
2023-04-01T15:04:00.452Z,100221.38
2023-04-01T15:06:53.581Z,100227.41
2023-04-01T15:09:34.367Z,100229.38
2023-04-01T15:12:47.424Z,100233.69
2023-04-01T15:15:36.480Z,100237.94
2023-04-01T15:18:22.842Z,100240.56
2023-04-01T15:21:40.377Z,100250.59
2023-04-01T15:24:22.671Z,100252.34
2023-04-01T15:27:14.033Z,100257.56
2023-04-01T15:30:02.288Z,100265.28
2023-04-01T15:32:44.072Z,100265.06
2023-04-01T15:35:27.036Z,100278.09
2023-04-01T15:38:32.565Z,100272.34
2023-04-01T15:41:05.308Z,100282.75
2023-04-01T15:43:31.672Z,100289.88
2023-04-01T15:46:24.560Z,100300.38
2023-04-01T15:49:09.109Z,100300.56
2023-04-01T15:51:41.493Z,100309.50
2023-04-01T15:54:26.441Z,100314.91
2023-04-01T15:57:22.649Z,100314.19
2023-04-01T16:00:08.331Z,100330.03
2023-04-01T16:02:40.900Z,100336.38
2023-04-01T16:05:41.418Z,100341.94
2023-04-01T16:08:27.107Z,100343.91
2023-04-01T16:11:13.323Z,100358.72
2023-04-01T16:13:58.120Z,100353.38
2023-04-01T16:16:24.629Z,100366.78
2023-04-01T16:19:09.913Z,100363.53
2023-04-01T16:21:59.387Z,100371.66
2023-04-01T16:24:46.709Z,100388.28
2023-04-01T16:27:20.198Z,100386.81
2023-04-01T16:29:52.599Z,100393.78
2023-04-01T16:32:31.331Z,100395.63
2023-04-01T16:35:13.141Z,100403.56
2023-04-01T16:37:48.881Z,100413.25
2023-04-01T16:40:45.586Z,100413.47
2023-04-01T16:43:24.191Z,100424.25
2023-04-01T16:46:27.830Z,100423.59
2023-04-01T16:49:12.525Z,100429.63
2023-04-01T16:51:45.116Z,100438.38
2023-04-01T16:54:28.880Z,100448.97
2023-04-01T16:57:18.607Z,100451.91
2023-04-01T16:59:56.378Z,100456.38
2023-04-01T17:02:35.822Z,100459.31
2023-04-01T17:05:05.337Z,100463.84
2023-04-01T17:08:02.277Z,100475.38
2023-04-01T17:10:50.821Z,100482.53
2023-04-01T17:13:37.218Z,100498.25
2023-04-01T17:16:32.953Z,100492.34
2023-04-01T17:19:10.063Z,100501.00
2023-04-01T17:21:47.910Z,100515.09
2023-04-01T17:24:46.790Z,100519.63
2023-04-01T17:27:27.067Z,100518.91
2023-04-01T17:30:12.575Z,100523.25
2023-04-01T17:32:50.897Z,100535.41
2023-04-01T17:35:23.469Z,100537.16
2023-04-01T17:37:57.579Z,100549.28
2023-04-01T17:40:47.632Z,100551.22
2023-04-01T17:43:37.039Z,100557.47
2023-04-01T17:46:28.733Z,100559.25
2023-04-01T17:49:25.575Z,100576.78
2023-04-01T17:51:52.145Z,100583.75
2023-04-01T17:54:37.104Z,100585.69
2023-04-01T17:57:26.316Z,100594.47
2023-04-01T18:00:06.860Z,100601.59
2023-04-01T18:03:04.333Z,100601.59
2023-04-01T18:06:11.463Z,100621.63
2023-04-01T18:08:47.047Z,100618.31
2023-04-01T18:11:55.848Z,100629.53
2023-04-01T18:14:46.906Z,100635.72
2023-04-01T18:17:26.321Z,100645.41
2023-04-01T18:20:25.237Z,100654.09
2023-04-01T18:23:03.710Z,100660.31
2023-04-01T18:25:36.035Z,100666.41
2023-04-01T18:28:41.550Z,100676.22
2023-04-01T18:31:22.220Z,100683.34
2023-04-01T18:34:07.410Z,100686.94
2023-04-01T18:36:51.172Z,100695.72
2023-04-01T18:39:29.582Z,100699.31
2023-04-01T18:42:12.121Z,100705.44
2023-04-01T18:44:51.316Z,100713.38
2023-04-01T18:47:44.640Z,100729.91
2023-04-01T18:50:35.765Z,100723.19
2023-04-01T18:53:37.160Z,100737.16
2023-04-01T18:56:23.536Z,100745.91
2023-04-01T18:59:00.455Z,100748.56
2023-04-01T19:01:40.622Z,100750.47
2023-04-01T19:04:32.855Z,100761.78
2023-04-01T19:07:20.944Z,100767.81
2023-04-01T19:09:50.679Z,100777.38
2023-04-01T19:12:59.820Z,100773.06
2023-04-01T19:15:42.955Z,100786.97
2023-04-01T19:18:17.997Z,100791.34
2023-04-01T19:20:57.764Z,100796.53
2023-04-01T19:23:58.296Z,100809.75
2023-04-01T19:26:39.987Z,100816.09
2023-04-01T19:29:34.647Z,100824.03
2023-04-01T19:32:06.420Z,100829.38
2023-04-01T19:35:10.883Z,100832.88
2023-04-01T19:38:03.432Z,100846.72
2023-04-01T19:40:36.355Z,100844.25
2023-04-01T19:43:30.370Z,100850.44
2023-04-01T19:46:06.050Z,100860.06
2023-04-01T19:48:56.679Z,100865.31
2023-04-01T19:51:23.331Z,100869.75
2023-04-01T19:53:58.592Z,100874.03
2023-04-01T19:56:49.949Z,100884.47
2023-04-01T19:59:38.284Z,100885.53
2023-04-01T20:02:16.773Z,100903.97
2023-04-01T20:04:48.376Z,100898.03
2023-04-01T20:07:20.522Z,100908.56
2023-04-01T20:10:16.575Z,100908.69
2023-04-01T20:12:52.202Z,100917.44
2023-04-01T20:15:36.758Z,100925.38
2023-04-01T20:18:13.821Z,100925.50
2023-04-01T20:20:41.836Z,100938.53
2023-04-01T20:23:11.274Z,100933.41
2023-04-01T20:25:47.688Z,100951.72
2023-04-01T20:28:20.373Z,100953.44
2023-04-01T20:30:52.786Z,100956.13
2023-04-01T20:33:47.656Z,100964.03
2023-04-01T20:36:28.076Z,100972.75
2023-04-01T20:38:54.477Z,100970.28
2023-04-01T20:41:24.028Z,100988.50
2023-04-01T20:44:06.176Z,100992.97
2023-04-01T20:47:08.113Z,100999.09
2023-04-01T20:50:16.490Z,101011.22
2023-04-01T20:52:57.027Z,101011.28
2023-04-01T20:56:07.364Z,101020.06
2023-04-01T20:58:46.478Z,101021.00
2023-04-01T21:01:31.447Z,101027.03
2023-04-01T21:04:04.045Z,101034.84
2023-04-01T21:07:02.299Z,101036.63
2023-04-01T21:09:59.935Z,101045.44
2023-04-01T21:12:43.604Z,101045.56
2023-04-01T21:15:58.200Z,101052.47
2023-04-01T21:18:24.641Z,101060.38
2023-04-01T21:20:53.124Z,101064.06
2023-04-01T21:24:11.431Z,101072.91
2023-04-01T21:26:52.353Z,101083.53
2023-04-01T21:29:53.074Z,101091.56
2023-04-01T21:32:44.121Z,101097.72
2023-04-01T21:35:56.083Z,101109.78
2023-04-01T21:38:57.944Z,101104.69
2023-04-01T21:41:24.338Z,101114.34
2023-04-01T21:44:20.479Z,101118.81
2023-04-01T21:47:02.950Z,101122.25
2023-04-01T21:50:11.900Z,101132.72
2023-04-01T21:53:01.536Z,101133.81
2023-04-01T21:55:58.972Z,101140.75
2023-04-01T21:58:45.348Z,101150.25
2023-04-01T22:01:25.074Z,101154.69
2023-04-01T22:04:18.312Z,101159.06
2023-04-01T22:07:07.468Z,101165.19
2023-04-01T22:09:42.919Z,101165.25
2023-04-01T22:12:55.965Z,101178.34
2023-04-01T22:15:47.519Z,101182.78
2023-04-01T22:18:23.945Z,101190.56
2023-04-01T22:21:07.664Z,101194.94
2023-04-01T22:23:54.314Z,101203.72
2023-04-01T22:26:33.821Z,101208.00
2023-04-01T22:29:27.568Z,101200.38
2023-04-01T22:32:05.185Z,101215.97
2023-04-01T22:34:58.297Z,101223.84
2023-04-01T22:37:43.096Z,101223.00
2023-04-01T22:40:16.598Z,101232.56
2023-04-01T22:42:57.181Z,101233.56
2023-04-01T22:45:46.794Z,101235.25
2023-04-01T22:48:26.998Z,101251.88
2023-04-01T22:51:13.397Z,101254.66
2023-04-01T22:54:00.114Z,101259.78
2023-04-01T22:56:50.285Z,101262.47
2023-04-01T22:59:35.988Z,101264.22
2023-04-01T23:02:11.371Z,101262.59
2023-04-01T23:04:44.630Z,101269.50
2023-04-01T23:07:47.765Z,101276.59
2023-04-01T23:10:24.656Z,101276.75
2023-04-01T23:12:53.179Z,101283.66
2023-04-01T23:15:20.657Z,101278.47
2023-04-01T23:18:05.114Z,101285.47
2023-04-01T23:20:49.583Z,101291.50
2023-04-01T23:23:36.511Z,101304.38
2023-04-01T23:26:09.057Z,101306.22
2023-04-01T23:28:54.140Z,101314.84
2023-04-01T23:31:39.249Z,101315.75
2023-04-01T23:34:14.685Z,101312.31
2023-04-01T23:36:47.845Z,101323.66
2023-04-01T23:39:39.425Z,101319.41
2023-04-01T23:42:14.252Z,101330.69
2023-04-01T23:44:41.076Z,101328.97
2023-04-01T23:47:12.648Z,101336.81
2023-04-01T23:49:52.702Z,101337.78
2023-04-01T23:52:28.223Z,101340.38
2023-04-01T23:54:58.263Z,101342.16
2023-04-01T23:57:31.883Z,101357.75
